sensor_id;sensor_type;location;lat;lon;timestamp;P1;durP1;ratioP1;P2;durP2;ratioP2
78873;SDS011;68250;43.514;1.494;2023-12-07T00:01:22;16.33;;;7.47;;
78873;SDS011;68250;43.514;1.494;2023-12-07T00:03:47;18.08;;;8.68;;
78873;SDS011;68250;43.514;1.494;2023-12-07T00:06:13;19.70;;;8.00;;
78873;SDS011;68250;43.514;1.494;2023-12-07T00:08:38;15.52;;;7.63;;
78873;SDS011;68250;43.514;1.494;2023-12-07T00:11:04;15.90;;;6.80;;
78873;SDS011;68250;43.514;1.494;2023-12-07T00:13:30;18.67;;;9.33;;
78873;SDS011;68250;43.514;1.494;2023-12-07T00:15:55;20.30;;;8.45;;
78873;SDS011;68250;43.514;1.494;2023-12-07T00:18:21;20.23;;;9.87;;
78873;SDS011;68250;43.514;1.494;2023-12-07T00:20:46;25.92;;;11.18;;
78873;SDS011;68250;43.514;1.494;2023-12-07T00:23:12;27.63;;;12.77;;
78873;SDS011;68250;43.514;1.494;2023-12-07T00:25:38;21.97;;;10.70;;
78873;SDS011;68250;43.514;1.494;2023-12-07T00:28:03;23.30;;;10.43;;
78873;SDS011;68250;43.514;1.494;2023-12-07T00:30:30;18.53;;;9.27;;
78873;SDS011;68250;43.514;1.494;2023-12-07T00:32:55;22.95;;;10.07;;
78873;SDS011;68250;43.514;1.494;2023-12-07T00:35:21;24.23;;;13.10;;
78873;SDS011;68250;43.514;1.494;2023-12-07T00:37:47;22.20;;;12.55;;
78873;SDS011;68250;43.514;1.494;2023-12-07T00:40:13;16.63;;;7.73;;
78873;SDS011;68250;43.514;1.494;2023-12-07T00:42:57;18.38;;;9.13;;
78873;SDS011;68250;43.514;1.494;2023-12-07T00:48:44;13.27;;;7.10;;
78873;SDS011;68250;43.514;1.494;2023-12-07T00:51:10;14.40;;;7.23;;
78873;SDS011;68250;43.514;1.494;2023-12-07T00:53:36;14.35;;;6.50;;
78873;SDS011;68250;43.514;1.494;2023-12-07T00:56:02;13.07;;;6.17;;
78873;SDS011;68250;43.514;1.494;2023-12-07T00:58:28;15.13;;;6.90;;
78873;SDS011;68250;43.514;1.494;2023-12-07T01:00:54;20.02;;;6.97;;
78873;SDS011;68250;43.514;1.494;2023-12-07T01:03:19;16.63;;;7.15;;
78873;SDS011;68250;43.514;1.494;2023-12-07T01:05:45;13.97;;;6.90;;
78873;SDS011;68250;43.514;1.494;2023-12-07T01:08:10;13.47;;;7.00;;
78873;SDS011;68250;43.514;1.494;2023-12-07T01:10:36;73.22;;;26.52;;
78873;SDS011;68250;43.514;1.494;2023-12-07T01:13:02;70.30;;;28.73;;
78873;SDS011;68250;43.514;1.494;2023-12-07T01:15:27;29.63;;;13.15;;
78873;SDS011;68250;43.514;1.494;2023-12-07T01:17:53;17.10;;;7.97;;
78873;SDS011;68250;43.514;1.494;2023-12-07T01:20:18;14.33;;;7.03;;
78873;SDS011;68250;43.514;1.494;2023-12-07T01:22:44;15.85;;;6.53;;
78873;SDS011;68250;43.514;1.494;2023-12-07T01:25:11;17.00;;;7.00;;
78873;SDS011;68250;43.514;1.494;2023-12-07T01:27:36;13.73;;;6.20;;
78873;SDS011;68250;43.514;1.494;2023-12-07T01:30:02;14.77;;;6.22;;
78873;SDS011;68250;43.514;1.494;2023-12-07T01:32:29;15.35;;;6.30;;
78873;SDS011;68250;43.514;1.494;2023-12-07T01:34:54;14.80;;;7.43;;
78873;SDS011;68250;43.514;1.494;2023-12-07T01:37:20;23.30;;;12.32;;
78873;SDS011;68250;43.514;1.494;2023-12-07T01:39:46;21.90;;;11.33;;
78873;SDS011;68250;43.514;1.494;2023-12-07T01:42:11;17.73;;;7.47;;
78873;SDS011;68250;43.514;1.494;2023-12-07T01:44:37;13.20;;;6.40;;
78873;SDS011;68250;43.514;1.494;2023-12-07T01:47:03;23.20;;;10.95;;
78873;SDS011;68250;43.514;1.494;2023-12-07T01:49:30;15.80;;;7.28;;
78873;SDS011;68250;43.514;1.494;2023-12-07T01:51:56;14.60;;;7.00;;
78873;SDS011;68250;43.514;1.494;2023-12-07T01:54:22;25.50;;;16.30;;
78873;SDS011;68250;43.514;1.494;2023-12-07T01:56:47;22.03;;;13.07;;
78873;SDS011;68250;43.514;1.494;2023-12-07T01:59:13;14.23;;;7.40;;
78873;SDS011;68250;43.514;1.494;2023-12-07T02:01:39;16.57;;;7.87;;
78873;SDS011;68250;43.514;1.494;2023-12-07T02:04:04;16.20;;;6.78;;
78873;SDS011;68250;43.514;1.494;2023-12-07T02:06:30;12.77;;;5.53;;
78873;SDS011;68250;43.514;1.494;2023-12-07T02:08:55;14.10;;;6.27;;
78873;SDS011;68250;43.514;1.494;2023-12-07T02:11:21;17.35;;;5.45;;
78873;SDS011;68250;43.514;1.494;2023-12-07T02:13:47;13.03;;;5.73;;
78873;SDS011;68250;43.514;1.494;2023-12-07T02:16:15;17.70;;;6.53;;
78873;SDS011;68250;43.514;1.494;2023-12-07T02:18:46;19.58;;;7.25;;
78873;SDS011;68250;43.514;1.494;2023-12-07T02:21:37;21.88;;;9.38;;
78873;SDS011;68250;43.514;1.494;2023-12-07T02:24:06;21.47;;;8.73;;
78873;SDS011;68250;43.514;1.494;2023-12-07T02:26:34;16.95;;;7.55;;
78873;SDS011;68250;43.514;1.494;2023-12-07T02:29:00;32.78;;;14.93;;
78873;SDS011;68250;43.514;1.494;2023-12-07T02:31:25;25.33;;;10.73;;
78873;SDS011;68250;43.514;1.494;2023-12-07T02:33:51;21.48;;;8.63;;
78873;SDS011;68250;43.514;1.494;2023-12-07T02:36:17;20.20;;;7.83;;
78873;SDS011;68250;43.514;1.494;2023-12-07T02:38:46;22.73;;;8.25;;
78873;SDS011;68250;43.514;1.494;2023-12-07T02:41:12;22.67;;;8.10;;
78873;SDS011;68250;43.514;1.494;2023-12-07T02:43:38;19.63;;;6.80;;
78873;SDS011;68250;43.514;1.494;2023-12-07T02:46:04;17.20;;;6.40;;
78873;SDS011;68250;43.514;1.494;2023-12-07T02:48:30;15.45;;;6.30;;
78873;SDS011;68250;43.514;1.494;2023-12-07T02:50:55;15.73;;;6.37;;
78873;SDS011;68250;43.514;1.494;2023-12-07T02:53:21;15.50;;;6.22;;
78873;SDS011;68250;43.514;1.494;2023-12-07T02:55:47;15.87;;;6.17;;
78873;SDS011;68250;43.514;1.494;2023-12-07T02:58:12;15.20;;;5.97;;
78873;SDS011;68250;43.514;1.494;2023-12-07T03:00:38;21.08;;;7.65;;
78873;SDS011;68250;43.514;1.494;2023-12-07T03:03:03;16.20;;;7.13;;
78873;SDS011;68250;43.514;1.494;2023-12-07T03:05:29;15.63;;;7.27;;
78873;SDS011;68250;43.514;1.494;2023-12-07T03:07:54;18.88;;;7.65;;
78873;SDS011;68250;43.514;1.494;2023-12-07T03:10:20;18.30;;;7.50;;
78873;SDS011;68250;43.514;1.494;2023-12-07T03:12:46;16.58;;;6.80;;
78873;SDS011;68250;43.514;1.494;2023-12-07T03:15:11;18.40;;;7.47;;
78873;SDS011;68250;43.514;1.494;2023-12-07T03:17:38;18.35;;;7.10;;
78873;SDS011;68250;43.514;1.494;2023-12-07T03:20:04;14.90;;;7.03;;
78873;SDS011;68250;43.514;1.494;2023-12-07T03:22:30;16.35;;;7.15;;
78873;SDS011;68250;43.514;1.494;2023-12-07T03:24:56;15.63;;;6.88;;
78873;SDS011;68250;43.514;1.494;2023-12-07T03:27:22;14.70;;;6.53;;
78873;SDS011;68250;43.514;1.494;2023-12-07T03:29:47;16.43;;;6.97;;
78873;SDS011;68250;43.514;1.494;2023-12-07T03:32:13;17.90;;;7.28;;
78873;SDS011;68250;43.514;1.494;2023-12-07T03:34:38;18.02;;;7.18;;
78873;SDS011;68250;43.514;1.494;2023-12-07T03:37:04;16.73;;;7.57;;
78873;SDS011;68250;43.514;1.494;2023-12-07T03:39:29;13.68;;;6.50;;
78873;SDS011;68250;43.514;1.494;2023-12-07T03:41:57;17.73;;;7.40;;
78873;SDS011;68250;43.514;1.494;2023-12-07T03:44:23;15.52;;;6.75;;
78873;SDS011;68250;43.514;1.494;2023-12-07T03:46:48;13.57;;;6.63;;
78873;SDS011;68250;43.514;1.494;2023-12-07T03:49:14;13.93;;;6.65;;
78873;SDS011;68250;43.514;1.494;2023-12-07T03:51:40;13.73;;;6.53;;
78873;SDS011;68250;43.514;1.494;2023-12-07T03:54:05;18.45;;;6.80;;
78873;SDS011;68250;43.514;1.494;2023-12-07T03:56:32;13.50;;;6.07;;
78873;SDS011;68250;43.514;1.494;2023-12-07T03:58:58;16.13;;;7.15;;
78873;SDS011;68250;43.514;1.494;2023-12-07T04:01:24;15.57;;;7.23;;
78873;SDS011;68250;43.514;1.494;2023-12-07T04:03:50;18.33;;;6.80;;
78873;SDS011;68250;43.514;1.494;2023-12-07T04:06:16;15.10;;;6.70;;
78873;SDS011;68250;43.514;1.494;2023-12-07T04:08:42;15.88;;;6.70;;
78873;SDS011;68250;43.514;1.494;2023-12-07T04:11:08;16.00;;;6.70;;
78873;SDS011;68250;43.514;1.494;2023-12-07T04:13:34;14.88;;;6.65;;
78873;SDS011;68250;43.514;1.494;2023-12-07T04:15:59;16.40;;;6.45;;
78873;SDS011;68250;43.514;1.494;2023-12-07T04:18:25;14.43;;;6.00;;
78873;SDS011;68250;43.514;1.494;2023-12-07T04:20:50;14.30;;;5.63;;
78873;SDS011;68250;43.514;1.494;2023-12-07T04:23:16;14.67;;;5.63;;
78873;SDS011;68250;43.514;1.494;2023-12-07T04:25:42;13.98;;;5.20;;
78873;SDS011;68250;43.514;1.494;2023-12-07T04:28:08;10.37;;;4.80;;
78873;SDS011;68250;43.514;1.494;2023-12-07T04:30:34;10.75;;;4.90;;
78873;SDS011;68250;43.514;1.494;2023-12-07T04:33:00;11.10;;;5.50;;
78873;SDS011;68250;43.514;1.494;2023-12-07T04:35:26;14.43;;;5.63;;
78873;SDS011;68250;43.514;1.494;2023-12-07T04:37:53;14.07;;;5.07;;
78873;SDS011;68250;43.514;1.494;2023-12-07T04:40:19;13.40;;;5.50;;
78873;SDS011;68250;43.514;1.494;2023-12-07T04:42:45;9.87;;;4.40;;
78873;SDS011;68250;43.514;1.494;2023-12-07T04:45:11;15.10;;;4.80;;
78873;SDS011;68250;43.514;1.494;2023-12-07T04:47:37;13.50;;;4.80;;
78873;SDS011;68250;43.514;1.494;2023-12-07T04:50:03;10.60;;;5.17;;
78873;SDS011;68250;43.514;1.494;2023-12-07T04:52:29;10.23;;;4.60;;
78873;SDS011;68250;43.514;1.494;2023-12-07T04:54:54;13.05;;;4.50;;
78873;SDS011;68250;43.514;1.494;2023-12-07T04:57:20;13.33;;;4.60;;
78873;SDS011;68250;43.514;1.494;2023-12-07T04:59:46;14.67;;;4.80;;
78873;SDS011;68250;43.514;1.494;2023-12-07T05:02:15;11.13;;;4.18;;
78873;SDS011;68250;43.514;1.494;2023-12-07T05:04:42;11.23;;;4.30;;
78873;SDS011;68250;43.514;1.494;2023-12-07T05:07:08;13.82;;;4.85;;
78873;SDS011;68250;43.514;1.494;2023-12-07T05:09:33;10.13;;;4.03;;
78873;SDS011;68250;43.514;1.494;2023-12-07T05:11:59;12.68;;;4.25;;
78873;SDS011;68250;43.514;1.494;2023-12-07T05:14:25;12.10;;;4.20;;
78873;SDS011;68250;43.514;1.494;2023-12-07T05:16:51;13.77;;;4.90;;
78873;SDS011;68250;43.514;1.494;2023-12-07T05:19:24;11.55;;;5.47;;
78873;SDS011;68250;43.514;1.494;2023-12-07T05:21:52;12.70;;;5.05;;
78873;SDS011;68250;43.514;1.494;2023-12-07T05:24:18;11.80;;;4.73;;
78873;SDS011;68250;43.514;1.494;2023-12-07T05:26:44;13.43;;;5.07;;
78873;SDS011;68250;43.514;1.494;2023-12-07T05:29:13;13.55;;;4.25;;
78873;SDS011;68250;43.514;1.494;2023-12-07T05:31:39;11.47;;;4.47;;
78873;SDS011;68250;43.514;1.494;2023-12-07T05:34:05;12.35;;;4.63;;
78873;SDS011;68250;43.514;1.494;2023-12-07T05:36:32;11.47;;;4.30;;
78873;SDS011;68250;43.514;1.494;2023-12-07T05:38:57;9.82;;;4.15;;
78873;SDS011;68250;43.514;1.494;2023-12-07T05:41:23;8.80;;;3.60;;
78873;SDS011;68250;43.514;1.494;2023-12-07T05:43:50;11.10;;;4.83;;
78873;SDS011;68250;43.514;1.494;2023-12-07T05:46:17;9.50;;;4.50;;
78873;SDS011;68250;43.514;1.494;2023-12-07T05:48:43;11.15;;;3.92;;
78873;SDS011;68250;43.514;1.494;2023-12-07T05:51:12;9.80;;;4.50;;
78873;SDS011;68250;43.514;1.494;2023-12-07T05:53:39;11.52;;;4.93;;
78873;SDS011;68250;43.514;1.494;2023-12-07T05:56:05;10.85;;;4.50;;
78873;SDS011;68250;43.514;1.494;2023-12-07T05:58:31;13.27;;;4.80;;
78873;SDS011;68250;43.514;1.494;2023-12-07T06:00:57;17.87;;;6.37;;
78873;SDS011;68250;43.514;1.494;2023-12-07T06:03:23;45.65;;;17.02;;
78873;SDS011;68250;43.514;1.494;2023-12-07T06:05:51;32.75;;;13.13;;
78873;SDS011;68250;43.514;1.494;2023-12-07T06:08:16;14.38;;;5.78;;
78873;SDS011;68250;43.514;1.494;2023-12-07T06:10:42;10.97;;;4.73;;
78873;SDS011;68250;43.514;1.494;2023-12-07T06:13:08;10.23;;;4.35;;
78873;SDS011;68250;43.514;1.494;2023-12-07T06:15:33;11.20;;;4.47;;
78873;SDS011;68250;43.514;1.494;2023-12-07T06:17:59;21.87;;;9.93;;
78873;SDS011;68250;43.514;1.494;2023-12-07T06:20:25;23.00;;;10.60;;
78873;SDS011;68250;43.514;1.494;2023-12-07T06:22:50;24.63;;;12.60;;
78873;SDS011;68250;43.514;1.494;2023-12-07T06:25:16;36.78;;;19.70;;
78873;SDS011;68250;43.514;1.494;2023-12-07T06:27:42;24.00;;;12.73;;
78873;SDS011;68250;43.514;1.494;2023-12-07T06:30:07;13.98;;;6.43;;
78873;SDS011;68250;43.514;1.494;2023-12-07T06:32:33;14.57;;;6.30;;
78873;SDS011;68250;43.514;1.494;2023-12-07T06:34:59;8.82;;;3.80;;
78873;SDS011;68250;43.514;1.494;2023-12-07T06:37:25;8.80;;;2.97;;
78873;SDS011;68250;43.514;1.494;2023-12-07T06:39:52;6.40;;;2.23;;
78873;SDS011;68250;43.514;1.494;2023-12-07T06:42:17;8.82;;;2.65;;
78873;SDS011;68250;43.514;1.494;2023-12-07T06:44:43;7.63;;;2.67;;
78873;SDS011;68250;43.514;1.494;2023-12-07T06:47:11;8.85;;;3.20;;
78873;SDS011;68250;43.514;1.494;2023-12-07T06:49:36;7.90;;;2.60;;
78873;SDS011;68250;43.514;1.494;2023-12-07T06:52:02;6.53;;;2.20;;
78873;SDS011;68250;43.514;1.494;2023-12-07T06:54:28;10.60;;;4.50;;
78873;SDS011;68250;43.514;1.494;2023-12-07T06:56:53;9.97;;;4.00;;
78873;SDS011;68250;43.514;1.494;2023-12-07T06:59:19;8.40;;;3.27;;
78873;SDS011;68250;43.514;1.494;2023-12-07T07:01:45;8.35;;;2.65;;
78873;SDS011;68250;43.514;1.494;2023-12-07T07:04:11;9.27;;;1.88;;
78873;SDS011;68250;43.514;1.494;2023-12-07T07:06:36;5.80;;;1.20;;
78873;SDS011;68250;43.514;1.494;2023-12-07T07:09:03;6.75;;;2.30;;
78873;SDS011;68250;43.514;1.494;2023-12-07T07:11:30;6.80;;;2.20;;
78873;SDS011;68250;43.514;1.494;2023-12-07T07:13:55;9.77;;;2.97;;
78873;SDS011;68250;43.514;1.494;2023-12-07T07:16:21;8.40;;;3.10;;
78873;SDS011;68250;43.514;1.494;2023-12-07T07:18:47;6.78;;;2.60;;
78873;SDS011;68250;43.514;1.494;2023-12-07T07:21:12;55.90;;;6.57;;
78873;SDS011;68250;43.514;1.494;2023-12-07T07:23:38;41.90;;;6.13;;
78873;SDS011;68250;43.514;1.494;2023-12-07T07:26:03;33.30;;;5.85;;
78873;SDS011;68250;43.514;1.494;2023-12-07T07:28:29;23.93;;;4.60;;
78873;SDS011;68250;43.514;1.494;2023-12-07T07:30:55;18.02;;;4.18;;
78873;SDS011;68250;43.514;1.494;2023-12-07T07:33:20;17.33;;;3.40;;
78873;SDS011;68250;43.514;1.494;2023-12-07T07:35:46;9.85;;;2.83;;
78873;SDS011;68250;43.514;1.494;2023-12-07T07:38:12;13.13;;;3.60;;
78873;SDS011;68250;43.514;1.494;2023-12-07T07:40:37;9.38;;;3.65;;
78873;SDS011;68250;43.514;1.494;2023-12-07T07:43:03;7.18;;;2.08;;
78873;SDS011;68250;43.514;1.494;2023-12-07T07:45:29;6.57;;;2.07;;
78873;SDS011;68250;43.514;1.494;2023-12-07T07:47:54;8.20;;;2.00;;
78873;SDS011;68250;43.514;1.494;2023-12-07T07:50:20;5.43;;;1.88;;
78873;SDS011;68250;43.514;1.494;2023-12-07T07:52:45;5.73;;;1.80;;
78873;SDS011;68250;43.514;1.494;2023-12-07T07:55:11;5.50;;;1.60;;
78873;SDS011;68250;43.514;1.494;2023-12-07T07:57:37;5.17;;;1.50;;
78873;SDS011;68250;43.514;1.494;2023-12-07T08:00:03;6.25;;;1.80;;
78873;SDS011;68250;43.514;1.494;2023-12-07T08:02:33;5.77;;;1.83;;
78873;SDS011;68250;43.514;1.494;2023-12-07T08:05:00;7.45;;;2.22;;
78873;SDS011;68250;43.514;1.494;2023-12-07T08:07:25;7.70;;;2.90;;
78873;SDS011;68250;43.514;1.494;2023-12-07T08:09:51;11.50;;;4.70;;
78873;SDS011;68250;43.514;1.494;2023-12-07T08:12:16;9.50;;;3.57;;
78873;SDS011;68250;43.514;1.494;2023-12-07T08:14:42;9.32;;;2.70;;
78873;SDS011;68250;43.514;1.494;2023-12-07T08:17:11;9.73;;;2.63;;
78873;SDS011;68250;43.514;1.494;2023-12-07T08:19:36;8.67;;;2.80;;
78873;SDS011;68250;43.514;1.494;2023-12-07T08:22:03;9.70;;;2.40;;
78873;SDS011;68250;43.514;1.494;2023-12-07T08:24:28;9.48;;;3.10;;
78873;SDS011;68250;43.514;1.494;2023-12-07T08:26:54;9.00;;;3.10;;
78873;SDS011;68250;43.514;1.494;2023-12-07T08:29:19;8.10;;;2.60;;
78873;SDS011;68250;43.514;1.494;2023-12-07T08:31:45;7.43;;;2.00;;
78873;SDS011;68250;43.514;1.494;2023-12-07T08:34:12;7.13;;;2.40;;
78873;SDS011;68250;43.514;1.494;2023-12-07T08:36:38;5.97;;;2.00;;
78873;SDS011;68250;43.514;1.494;2023-12-07T08:39:03;9.17;;;1.97;;
78873;SDS011;68250;43.514;1.494;2023-12-07T08:41:29;6.63;;;1.65;;
78873;SDS011;68250;43.514;1.494;2023-12-07T08:43:54;5.47;;;1.50;;
78873;SDS011;68250;43.514;1.494;2023-12-07T08:46:20;5.75;;;1.35;;
78873;SDS011;68250;43.514;1.494;2023-12-07T08:48:46;4.88;;;1.35;;
78873;SDS011;68250;43.514;1.494;2023-12-07T08:51:11;7.50;;;1.40;;
78873;SDS011;68250;43.514;1.494;2023-12-07T08:53:37;6.15;;;1.33;;
78873;SDS011;68250;43.514;1.494;2023-12-07T08:56:03;4.70;;;1.40;;
78873;SDS011;68250;43.514;1.494;2023-12-07T08:58:29;4.95;;;1.42;;
78873;SDS011;68250;43.514;1.494;2023-12-07T09:00:55;5.47;;;1.50;;
78873;SDS011;68250;43.514;1.494;2023-12-07T09:03:21;5.80;;;1.17;;
78873;SDS011;68250;43.514;1.494;2023-12-07T09:05:50;5.95;;;1.30;;
78873;SDS011;68250;43.514;1.494;2023-12-07T09:08:16;4.00;;;1.10;;
78873;SDS011;68250;43.514;1.494;2023-12-07T09:10:42;5.32;;;1.40;;
78873;SDS011;68250;43.514;1.494;2023-12-07T09:13:07;4.20;;;1.17;;
78873;SDS011;68250;43.514;1.494;2023-12-07T09:15:33;4.13;;;1.33;;
78873;SDS011;68250;43.514;1.494;2023-12-07T09:18:02;4.57;;;1.30;;
78873;SDS011;68250;43.514;1.494;2023-12-07T09:20:28;7.63;;;1.40;;
78873;SDS011;68250;43.514;1.494;2023-12-07T09:22:54;5.22;;;1.50;;
78873;SDS011;68250;43.514;1.494;2023-12-07T09:25:22;6.37;;;1.30;;
78873;SDS011;68250;43.514;1.494;2023-12-07T09:27:48;4.60;;;1.20;;
78873;SDS011;68250;43.514;1.494;2023-12-07T09:30:13;4.57;;;1.10;;
78873;SDS011;68250;43.514;1.494;2023-12-07T09:32:39;5.68;;;1.50;;
78873;SDS011;68250;43.514;1.494;2023-12-07T09:35:06;6.20;;;1.20;;
78873;SDS011;68250;43.514;1.494;2023-12-07T09:37:33;6.67;;;1.40;;
78873;SDS011;68250;43.514;1.494;2023-12-07T09:39:59;6.68;;;1.20;;
78873;SDS011;68250;43.514;1.494;2023-12-07T09:42:25;5.93;;;1.45;;
78873;SDS011;68250;43.514;1.494;2023-12-07T09:44:50;4.90;;;1.37;;
78873;SDS011;68250;43.514;1.494;2023-12-07T09:47:16;4.80;;;1.30;;
78873;SDS011;68250;43.514;1.494;2023-12-07T09:49:42;7.17;;;1.17;;
78873;SDS011;68250;43.514;1.494;2023-12-07T09:52:07;5.75;;;1.40;;
78873;SDS011;68250;43.514;1.494;2023-12-07T09:54:34;6.40;;;1.20;;
78873;SDS011;68250;43.514;1.494;2023-12-07T09:57:03;7.13;;;1.30;;
78873;SDS011;68250;43.514;1.494;2023-12-07T09:59:29;4.18;;;1.10;;
78873;SDS011;68250;43.514;1.494;2023-12-07T10:01:54;5.20;;;1.40;;
78873;SDS011;68250;43.514;1.494;2023-12-07T10:04:20;5.35;;;1.48;;
78873;SDS011;68250;43.514;1.494;2023-12-07T10:06:54;5.18;;;1.10;;
78873;SDS011;68250;43.514;1.494;2023-12-07T10:09:21;5.40;;;1.00;;
78873;SDS011;68250;43.514;1.494;2023-12-07T10:11:47;4.80;;;1.00;;
78873;SDS011;68250;43.514;1.494;2023-12-07T10:14:13;5.35;;;1.38;;
78873;SDS011;68250;43.514;1.494;2023-12-07T10:16:40;5.27;;;1.10;;
78873;SDS011;68250;43.514;1.494;2023-12-07T10:19:18;5.82;;;1.10;;
78873;SDS011;68250;43.514;1.494;2023-12-07T10:21:47;5.45;;;1.20;;
78873;SDS011;68250;43.514;1.494;2023-12-07T10:24:15;5.30;;;1.10;;
78873;SDS011;68250;43.514;1.494;2023-12-07T10:26:43;4.88;;;1.20;;
78873;SDS011;68250;43.514;1.494;2023-12-07T10:29:09;4.00;;;1.20;;
78873;SDS011;68250;43.514;1.494;2023-12-07T10:31:36;4.55;;;1.20;;
78873;SDS011;68250;43.514;1.494;2023-12-07T10:34:02;5.93;;;1.20;;
78873;SDS011;68250;43.514;1.494;2023-12-07T10:36:27;5.63;;;1.37;;
78873;SDS011;68250;43.514;1.494;2023-12-07T10:38:53;4.20;;;1.08;;
78873;SDS011;68250;43.514;1.494;2023-12-07T10:41:19;3.93;;;1.10;;
78873;SDS011;68250;43.514;1.494;2023-12-07T10:43:48;4.57;;;1.27;;
78873;SDS011;68250;43.514;1.494;2023-12-07T10:46:15;4.88;;;1.30;;
78873;SDS011;68250;43.514;1.494;2023-12-07T10:48:51;4.60;;;1.17;;
78873;SDS011;68250;43.514;1.494;2023-12-07T10:51:27;6.87;;;1.20;;
78873;SDS011;68250;43.514;1.494;2023-12-07T10:53:54;3.65;;;0.90;;
78873;SDS011;68250;43.514;1.494;2023-12-07T10:56:32;4.13;;;1.13;;
78873;SDS011;68250;43.514;1.494;2023-12-07T10:59:08;5.07;;;1.15;;
78873;SDS011;68250;43.514;1.494;2023-12-07T11:01:37;8.25;;;1.30;;
78873;SDS011;68250;43.514;1.494;2023-12-07T11:04:04;4.43;;;0.90;;
78873;SDS011;68250;43.514;1.494;2023-12-07T11:06:31;4.30;;;1.13;;
78873;SDS011;68250;43.514;1.494;2023-12-07T11:08:58;4.05;;;1.10;;
78873;SDS011;68250;43.514;1.494;2023-12-07T11:11:33;4.10;;;1.15;;
78873;SDS011;68250;43.514;1.494;2023-12-07T11:14:06;7.65;;;1.10;;
78873;SDS011;68250;43.514;1.494;2023-12-07T11:16:33;6.07;;;1.20;;
78873;SDS011;68250;43.514;1.494;2023-12-07T11:19:00;5.72;;;1.48;;
78873;SDS011;68250;43.514;1.494;2023-12-07T11:21:26;4.38;;;1.00;;
78873;SDS011;68250;43.514;1.494;2023-12-07T11:23:52;5.07;;;1.40;;
78873;SDS011;68250;43.514;1.494;2023-12-07T11:26:19;5.65;;;1.60;;
78873;SDS011;68250;43.514;1.494;2023-12-07T11:28:47;5.47;;;1.40;;
78873;SDS011;68250;43.514;1.494;2023-12-07T11:31:13;5.05;;;1.90;;
78873;SDS011;68250;43.514;1.494;2023-12-07T11:33:39;5.87;;;1.30;;
78873;SDS011;68250;43.514;1.494;2023-12-07T11:36:05;6.80;;;1.33;;
78873;SDS011;68250;43.514;1.494;2023-12-07T11:38:32;5.53;;;1.40;;
78873;SDS011;68250;43.514;1.494;2023-12-07T11:40:58;4.63;;;1.30;;
78873;SDS011;68250;43.514;1.494;2023-12-07T11:45:58;4.90;;;1.13;;
78873;SDS011;68250;43.514;1.494;2023-12-07T11:48:24;5.07;;;1.40;;
78873;SDS011;68250;43.514;1.494;2023-12-07T11:51:08;6.43;;;1.90;;
78873;SDS011;68250;43.514;1.494;2023-12-07T11:53:35;7.77;;;2.93;;
78873;SDS011;68250;43.514;1.494;2023-12-07T11:56:02;5.10;;;1.73;;
78873;SDS011;68250;43.514;1.494;2023-12-07T11:58:30;5.60;;;1.30;;
78873;SDS011;68250;43.514;1.494;2023-12-07T12:00:57;3.83;;;1.20;;
78873;SDS011;68250;43.514;1.494;2023-12-07T12:03:26;5.57;;;1.40;;
78873;SDS011;68250;43.514;1.494;2023-12-07T12:05:53;5.10;;;1.47;;
78873;SDS011;68250;43.514;1.494;2023-12-07T12:08:19;4.75;;;1.30;;
78873;SDS011;68250;43.514;1.494;2023-12-07T12:10:46;5.55;;;1.27;;
78873;SDS011;68250;43.514;1.494;2023-12-07T12:13:12;4.72;;;1.20;;
78873;SDS011;68250;43.514;1.494;2023-12-07T12:15:38;6.95;;;1.67;;
78873;SDS011;68250;43.514;1.494;2023-12-07T12:18:04;5.13;;;1.50;;
78873;SDS011;68250;43.514;1.494;2023-12-07T12:20:31;5.40;;;1.35;;
78873;SDS011;68250;43.514;1.494;2023-12-07T12:22:57;3.65;;;1.02;;
78873;SDS011;68250;43.514;1.494;2023-12-07T12:25:27;6.88;;;1.60;;
78873;SDS011;68250;43.514;1.494;2023-12-07T12:27:56;3.85;;;1.20;;
78873;SDS011;68250;43.514;1.494;2023-12-07T12:30:23;5.73;;;1.10;;
78873;SDS011;68250;43.514;1.494;2023-12-07T12:32:49;4.68;;;1.13;;
78873;SDS011;68250;43.514;1.494;2023-12-07T12:35:15;6.45;;;1.40;;
78873;SDS011;68250;43.514;1.494;2023-12-07T12:37:45;4.80;;;1.30;;
78873;SDS011;68250;43.514;1.494;2023-12-07T12:40:11;5.55;;;1.85;;
78873;SDS011;68250;43.514;1.494;2023-12-07T12:42:42;5.07;;;1.33;;
78873;SDS011;68250;43.514;1.494;2023-12-07T12:45:08;3.95;;;1.05;;
78873;SDS011;68250;43.514;1.494;2023-12-07T12:47:35;6.15;;;1.23;;
78873;SDS011;68250;43.514;1.494;2023-12-07T12:50:01;6.13;;;1.70;;
78873;SDS011;68250;43.514;1.494;2023-12-07T12:52:30;4.00;;;1.07;;
78873;SDS011;68250;43.514;1.494;2023-12-07T12:54:56;5.20;;;1.20;;
78873;SDS011;68250;43.514;1.494;2023-12-07T12:57:22;4.93;;;1.30;;
78873;SDS011;68250;43.514;1.494;2023-12-07T12:59:48;5.65;;;1.10;;
78873;SDS011;68250;43.514;1.494;2023-12-07T13:02:16;4.25;;;1.05;;
78873;SDS011;68250;43.514;1.494;2023-12-07T13:04:41;4.57;;;1.20;;
78873;SDS011;68250;43.514;1.494;2023-12-07T13:07:07;15.88;;;4.28;;
78873;SDS011;68250;43.514;1.494;2023-12-07T13:09:33;4.75;;;1.30;;
78873;SDS011;68250;43.514;1.494;2023-12-07T13:11:58;6.20;;;1.20;;
78873;SDS011;68250;43.514;1.494;2023-12-07T13:14:24;3.65;;;0.95;;
78873;SDS011;68250;43.514;1.494;2023-12-07T13:16:49;4.70;;;1.20;;
78873;SDS011;68250;43.514;1.494;2023-12-07T13:19:15;5.60;;;1.23;;
78873;SDS011;68250;43.514;1.494;2023-12-07T13:21:41;5.83;;;1.30;;
78873;SDS011;68250;43.514;1.494;2023-12-07T13:24:07;4.30;;;1.50;;
78873;SDS011;68250;43.514;1.494;2023-12-07T13:26:37;5.07;;;1.80;;
78873;SDS011;68250;43.514;1.494;2023-12-07T13:29:06;7.10;;;2.33;;
78873;SDS011;68250;43.514;1.494;2023-12-07T13:31:34;5.47;;;1.70;;
78873;SDS011;68250;43.514;1.494;2023-12-07T13:34:00;5.57;;;1.63;;
78873;SDS011;68250;43.514;1.494;2023-12-07T13:36:26;5.43;;;1.27;;
78873;SDS011;68250;43.514;1.494;2023-12-07T13:38:54;5.00;;;1.27;;
78873;SDS011;68250;43.514;1.494;2023-12-07T13:41:20;5.78;;;1.30;;
78873;SDS011;68250;43.514;1.494;2023-12-07T13:43:47;5.50;;;2.05;;
78873;SDS011;68250;43.514;1.494;2023-12-07T13:46:13;6.72;;;1.52;;
78873;SDS011;68250;43.514;1.494;2023-12-07T13:48:40;6.00;;;1.50;;
78873;SDS011;68250;43.514;1.494;2023-12-07T13:51:07;5.23;;;1.30;;
78873;SDS011;68250;43.514;1.494;2023-12-07T13:53:33;4.95;;;1.60;;
78873;SDS011;68250;43.514;1.494;2023-12-07T13:55:59;4.03;;;1.40;;
78873;SDS011;68250;43.514;1.494;2023-12-07T13:58:25;4.90;;;1.40;;
78873;SDS011;68250;43.514;1.494;2023-12-07T14:00:51;4.13;;;1.15;;
78873;SDS011;68250;43.514;1.494;2023-12-07T14:03:16;4.90;;;1.30;;
78873;SDS011;68250;43.514;1.494;2023-12-07T14:05:42;5.15;;;1.30;;
78873;SDS011;68250;43.514;1.494;2023-12-07T14:08:07;5.05;;;1.20;;
78873;SDS011;68250;43.514;1.494;2023-12-07T14:10:33;6.80;;;1.27;;
78873;SDS011;68250;43.514;1.494;2023-12-07T14:12:59;4.72;;;1.40;;
78873;SDS011;68250;43.514;1.494;2023-12-07T14:15:25;4.97;;;1.27;;
78873;SDS011;68250;43.514;1.494;2023-12-07T14:17:51;4.78;;;1.40;;
78873;SDS011;68250;43.514;1.494;2023-12-07T14:20:17;4.97;;;1.15;;
78873;SDS011;68250;43.514;1.494;2023-12-07T14:22:42;5.20;;;1.20;;
78873;SDS011;68250;43.514;1.494;2023-12-07T14:25:09;4.57;;;1.40;;
78873;SDS011;68250;43.514;1.494;2023-12-07T14:27:35;6.25;;;1.60;;
78873;SDS011;68250;43.514;1.494;2023-12-07T14:30:01;4.87;;;1.40;;
78873;SDS011;68250;43.514;1.494;2023-12-07T14:32:27;4.18;;;1.00;;
78873;SDS011;68250;43.514;1.494;2023-12-07T14:34:54;6.03;;;1.50;;
78873;SDS011;68250;43.514;1.494;2023-12-07T14:37:20;7.97;;;1.48;;
78873;SDS011;68250;43.514;1.494;2023-12-07T14:39:46;4.73;;;1.40;;
78873;SDS011;68250;43.514;1.494;2023-12-07T14:42:11;4.72;;;1.50;;